Higdon, Alabama
Current Conditions -  °F | °C
As of 3:35 PM on Wednesday 26 Nov 2014 (Local Time) from K4A6 Reporting Station
Broken Clouds Broken Clouds  
Wind Chill: 52°   Ceiling: 10000
Heat Index: 52°   Visibility: 10mi
Dew Point: 25°   Wind: 5mph
Humidity: 35%   Direction: 200°SSW
Pressure: 30.06"   Gusts: NA
Location:  34.85°N, 85.62°W
Report Text: K4A6 262135Z AUTO 20004KT 10SM BKN100 11/M04 A3006 RMK AO2
Loading
Personal Weather Stations






























Interactive Weather Map New forecast layout! Learn more

10-Day Weather Forecast

Advertisements
Track Severe Weather on mobile